Weather at Batu Licin Airport

Public forecast

Using degrees Celsius for public forecast. Weather courtesy of forecast.io.

Closest aviation weather report (METAR) to Batu Licin Airport

Closest report is Syamsudin Noor International Airport, 73.9 nm (136.8 km) W.

2024/05/19 11:00 (retrieved 31 minutes ago)

WAOO 191100Z 09005KT 9999 SCT019 29/23 Q1005 NOSIG

Closest aviation forecast (TAF) to Batu Licin Airport

Closest forecast is Syamsudin Noor International Airport, 73.9 nm (136.8 km) W.

2024/05/19 06:55 (retrieved 5 hours ago)

TAF WAOO 190500Z 1906/2006 15008KT 9999 SCT018 PROB30 TEMPO 1906/1910 6000 RA